• Join FlightAware (Why Join?)
  • Login
  • US Flag 
05:54PM EST


 

Airport Tracker/Info


-or-


 

Live Flight TrackerFlight Track Log ✈ SWA709 ✈ 18-Apr-2013 ✈ KLAS - KSJC

Flight Track Log - Related Links

Times and Time Zones

All times are in EDT time to prevent confusion due to time zone crossing. See the SWA709 flight status page for this flight to view local times or setup timezone preferences in your user account.

Time Position Orientation Groundspeed Altitude Reporting Facility
EDT Latitude Longitude Course Direction KTS MPH feet Rate Location/Type
11:00AM 36.1103 -115.2497 262° West 233 268 6,800  Level Los Angeles Center
11:01AM 36.0456 -115.3211 222° Southwest 290 334 9,000 1,140 Climbing Los Angeles Center
11:02AM 35.9689 -115.3619 203° Southwest 298 343 9,200 1,260 Climbing Los Angeles Center
11:03AM 35.8978 -115.4253 216° Southwest 323 372 11,600 3,000 Climbing Los Angeles Center
11:05AM 36.3607 -116.5129 316° Northwest  Level FlightAware Approximate
11:05AM 35.8947 -115.5433 268° West 339 390 15,500  Level Los Angeles Center
11:06AM 35.8950 -115.6769 270° West 357 411 19,200 3,360 Climbing Los Angeles Center
11:07AM 35.8944 -115.8058 270° West 373 429 22,500 2,760 Climbing Los Angeles Center
11:08AM 35.8967 -115.9264 271° West 382 440 25,000 2,220 Climbing Los Angeles Center
11:09AM 35.9278 -116.0550 287° West 393 452 27,200 2,160 Climbing Los Angeles Center
11:10AM 35.9756 -116.2067 291° West 399 459 29,500 2,280 Climbing Los Angeles Center
11:11AM 36.0128 -116.3264 291° West 382 440 32,000 1,200 Climbing Los Angeles Center
11:12AM 36.0517 -116.4458 292° West 376 433 32,000  Level Los Angeles Center
11:13AM 36.0900 -116.5664 292° West 378 435 32,000  Level Los Angeles Center
11:14AM 36.1278 -116.6869 291° West 379 436 32,000  Level Los Angeles Center
11:15AM 36.1742 -116.8344 291° West 383 441 32,000  Level Los Angeles Center
11:16AM 36.2203 -116.9814 291° West 384 442 32,000  Level Los Angeles Center
11:17AM 36.2592 -117.1058 291° West 387 445 32,000  Level Los Angeles Center
11:18AM 36.2967 -117.2292 291° West 385 443 32,000  Level Los Angeles Center
11:19AM 36.3347 -117.3514 291° West 385 443 32,000  Level Los Angeles Center
11:20AM 36.3647 -117.4503 291° West 384 442 32,000  Level Los Angeles Center
11:21AM 36.4178 -117.6236 291° West 385 443 32,000  Level Los Angeles Center
11:22AM 36.4556 -117.7475 291° West 385 443 32,000  Level Los Angeles Center
11:23AM 36.4936 -117.8722 291° West 386 444 32,000  Level Los Angeles Center
11:24AM 36.5314 -117.9981 291° West 387 445 32,000  Level Los Angeles Center
11:25AM 36.5675 -118.1231 290° West 387 445 32,000  Level Los Angeles Center
11:26AM 36.5983 -118.2247 291° West 384 442 32,000  Level Oakland Center
11:27AM 36.6358 -118.3506 290° West 386 444 32,000  Level Oakland Center
11:28AM 36.6733 -118.4758 290° West 386 444 32,000  Level Oakland Center
11:29AM 36.7081 -118.5928 290° West 379 436 32,000  Level Oakland Center
11:30AM 36.7447 -118.7158 290° West 382 440 32,000  Level Oakland Center
11:31AM 36.7797 -118.8381 290° West 379 436 32,000  Level Oakland Center
11:32AM 36.8144 -118.9606 290° West 374 430 32,000  Level Oakland Center
11:33AM 36.8578 -119.1106 290° West 385 443 32,000  Level Oakland Center
11:34AM 36.8936 -119.2356 290° West 386 444 32,000  Level Oakland Center
11:35AM 36.9294 -119.3611 290° West 389 448 32,000  Level Oakland Center
11:36AM 36.9644 -119.4878 289° West 392 451 32,000  Level Oakland Center
11:37AM 36.9994 -119.6122 289° West 384 442 32,000  Level Oakland Center
11:38AM 37.0339 -119.7375 289° West 382 440 32,000 -1,020 Level Oakland Center
11:39AM 37.0697 -119.8622 290° West 381 438 29,900 -2,160 Descending Oakland Center
11:40AM 37.1036 -119.9908 288° West 369 425 27,600 -2,280 Descending Oakland Center
11:41AM 37.1372 -120.1075 290° West 349 402 25,400 -2,520 Descending Oakland Center
11:42AM 37.1686 -120.2247 289° West 352 405 22,500 -2,640 Descending Oakland Center
11:43AM 37.2006 -120.3425 289° West 354 407 20,100 -2,640 Descending Oakland Center
11:44AM 37.2167 -120.4333 283° West 366 421 18,200 -2,400 Descending Northern Cal TRACON
11:45AM 37.1833 -120.5500 250° West 388 447 16,200 -2,460 Descending Northern Cal TRACON
11:46AM 37.1667 -120.6667 260° West 351 404 13,600 -2,580 Descending Northern Cal TRACON
11:47AM 37.1500 -120.7667 258° West 355 409 11,600 -1,800 Descending Northern Cal TRACON
11:48AM 37.1244 -120.8353 245° Southwest 324 373 10,800 -960 Descending Oakland Center
11:49AM 37.0625 -120.9131 225° Southwest 321 369 10,000 -420 Descending Oakland Center
11:50AM 37.0003 -120.9814 221° Southwest 304 350 10,000  Level Oakland Center
11:51AM 36.9872 -121.0728 260° West 287 330 10,000 -60 Level Oakland Center
11:52AM 36.9983 -121.1644 279° West 277 319 9,900 -540 Descending Oakland Center
11:53AM 37.0097 -121.2600 279° West 279 321 8,900 -1,020 Descending Oakland Center
11:54AM 37.0231 -121.3708 279° West 272 313 7,900 -1,260 Descending Oakland Center
11:55AM 37.0353 -121.4631 279° West 270 311 6,400 -1,260 Descending Oakland Center
11:56AM 37.0761 -121.5414 303° West 269 310 5,400 -780 Descending Oakland Center
11:57AM 37.1150 -121.6186 302° West 265 305 4,900 -300 Descending Oakland Center
11:58AM 37.1508 -121.6903 302° West 251 289 4,900 -360 Level Oakland Center
11:59AM 37.1869 -121.7483 308° West 231 266 4,200 -900 Descending Oakland Center
12:00PM 37.2333 -121.7939 322° Northwest 218 251 3,100 -1,020 Descending Oakland Center
12:01PM 37.2717 -121.8333 321° Northwest 196 226 2,200 -960 Descending Oakland Center
12:02PM 37.3114 -121.8758 320° Northwest 170 196 1,200 -840 Descending Oakland Center
12:03PM 37.3386 -121.9033 321° Northwest 147 169 500 9,240 Descending Oakland Center
12:04PM 37.3644 -121.9322 318° Northwest 133 153 20,000 19,140 Climbing Oakland Center